Time;durP1;ratioP1;P1;durP2;ratioP2;P2;SDS_P1;SDS_P2;PMS_P1;PMS_P2;Temp;Humidity;BMP_temperature;BMP_pressure;BME280_temperature;BME280_humidity;BME280_pressure;Samples;Min_cycle;Max_cycle;Signal;HPM_P1;HPM_P2
2022/02/21 00:01:12;;;;;;;;;;;18.30;43.20;;;;;;5075252;28;19970;-62
2022/02/21 00:03:38;;;;;;;;;;;18.40;43.20;;;;;;5093247;28;20367;-62
2022/02/21 00:06:03;;;;;;;;;;;18.30;43.20;;;;;;5093254;28;19966;-62
2022/02/21 00:08:29;;;;;;;;;;;18.40;43.30;;;;;;5093171;28;19961;-62
2022/02/21 00:10:54;;;;;;;;;;;18.40;43.20;;;;;;5093210;28;19912;-62
2022/02/21 00:13:20;;;;;;;;;;;18.30;43.20;;;;;;5093453;28;19908;-62
2022/02/21 00:15:45;;;;;;;;;;;18.30;43.20;;;;;;5094027;28;19912;-62
2022/02/21 00:18:10;;;;;;;;;;;18.30;43.20;;;;;;5097305;28;19915;-62
2022/02/21 00:20:36;;;;;;;;;;;18.30;43.20;;;;;;5097098;28;19908;-62
2022/02/21 00:23:02;;;;;;;;;;;18.30;43.30;;;;;;5097439;28;19915;-62
2022/02/21 00:25:28;;;;;;;;;;;18.30;43.20;;;;;;5078727;28;19920;-62
2022/02/21 00:27:53;;;;;;;;;;;18.30;43.20;;;;;;5096992;28;20360;-62
2022/02/21 00:30:19;;;;;;;;;;;18.30;43.20;;;;;;5097195;28;19915;-62
2022/02/21 00:32:44;;;;;;;;;;;18.30;43.20;;;;;;5096813;28;19943;-62
2022/02/21 00:35:10;;;;;;;;;;;18.30;43.20;;;;;;5096825;28;19915;-62
2022/02/21 00:37:35;;;;;;;;;;;18.30;43.20;;;;;;5096870;28;19948;-63
2022/02/21 00:40:01;;;;;;;;;;;18.30;43.20;;;;;;5096725;28;19977;-62
2022/02/21 00:42:26;;;;;;;;;;;18.30;43.20;;;;;;5078628;28;19915;-62
2022/02/21 00:44:56;;;;;;;;;;;18.30;43.20;;;;;;5096569;28;20031;-62
2022/02/21 00:47:22;;;;;;;;;;;18.30;43.20;;;;;;5078519;28;19919;-62
2022/02/21 00:49:47;;;;;;;;;;;18.30;43.20;;;;;;5096599;28;20366;-63
2022/02/21 00:52:13;;;;;;;;;;;18.30;43.20;;;;;;5096806;28;20376;-62
2022/02/21 00:54:38;;;;;;;;;;;18.30;43.30;;;;;;5096475;28;20086;-62
2022/02/21 00:57:04;;;;;;;;;;;18.20;43.20;;;;;;5096618;28;19908;-62
2022/02/21 00:59:29;;;;;;;;;;;18.20;43.20;;;;;;5096345;28;19959;-63
2022/02/21 01:01:55;;;;;;;;;;;18.20;43.20;;;;;;5096640;28;19908;-63
2022/02/21 01:04:20;;;;;;;;;;;18.20;43.30;;;;;;5096431;28;19919;-62
2022/02/21 01:06:46;;;;;;;;;;;18.20;43.20;;;;;;5096328;28;20465;-62
2022/02/21 01:09:11;;;;;;;;;;;18.20;43.20;;;;;;5096151;28;20386;-62
2022/02/21 01:11:37;;;;;;;;;;;18.20;43.30;;;;;;5096134;28;19912;-62
2022/02/21 01:14:02;;;;;;;;;;;18.20;43.30;;;;;;5096131;28;19955;-62
2022/02/21 01:16:29;;;;;;;;;;;18.20;43.30;;;;;;5095967;28;19918;-62
2022/02/21 01:18:54;;;;;;;;;;;18.20;43.30;;;;;;5095914;28;20024;-62
2022/02/21 01:21:19;;;;;;;;;;;18.20;43.20;;;;;;5095960;28;20367;-62
2022/02/21 01:23:45;;;;;;;;;;;18.20;43.30;;;;;;5095758;28;19923;-62
2022/02/21 01:26:11;;;;;;;;;;;18.20;43.20;;;;;;5095756;28;19908;-62
2022/02/21 01:28:36;;;;;;;;;;;18.10;43.30;;;;;;5095846;28;19908;-62
2022/02/21 01:31:02;;;;;;;;;;;18.10;43.20;;;;;;5095850;28;19953;-63
2022/02/21 01:33:30;;;;;;;;;;;18.10;43.30;;;;;;5095622;28;19912;-62
2022/02/21 01:35:56;;;;;;;;;;;18.20;43.20;;;;;;5095605;28;20364;-62
2022/02/21 01:38:21;;;;;;;;;;;18.10;43.20;;;;;;5095554;28;19934;-62
2022/02/21 01:40:47;;;;;;;;;;;18.10;43.20;;;;;;5095816;28;20326;-62
2022/02/21 01:43:12;;;;;;;;;;;18.10;43.30;;;;;;5095555;28;19912;-62
2022/02/21 01:45:38;;;;;;;;;;;18.10;43.10;;;;;;5095701;28;19920;-62
2022/02/21 01:48:04;;;;;;;;;;;18.10;43.20;;;;;;5095502;28;20271;-62
2022/02/21 01:50:29;;;;;;;;;;;18.10;43.10;;;;;;5095417;28;19912;-62
2022/02/21 01:52:54;;;;;;;;;;;18.10;43.20;;;;;;5095339;28;20324;-62
2022/02/21 01:55:20;;;;;;;;;;;18.10;43.20;;;;;;5095509;28;19915;-62
2022/02/21 01:57:48;;;;;;;;;;;18.10;43.20;;;;;;5095525;28;19915;-62
2022/02/21 02:00:14;;;;;;;;;;;18.10;43.20;;;;;;5095235;28;19920;-62
2022/02/21 02:02:43;;;;;;;;;;;18.10;43.20;;;;;;5095299;28;20417;-63
2022/02/21 02:05:09;;;;;;;;;;;18.10;43.20;;;;;;5095327;28;19916;-63
2022/02/21 02:07:34;;;;;;;;;;;18.00;43.10;;;;;;5095125;28;19919;-63
2022/02/21 02:10:00;;;;;;;;;;;18.00;43.30;;;;;;5095112;28;19915;-62
2022/02/21 02:12:25;;;;;;;;;;;18.00;43.20;;;;;;5094991;28;19937;-62
2022/02/21 02:14:51;;;;;;;;;;;18.10;43.20;;;;;;5076975;28;19908;-62
2022/02/21 02:17:16;;;;;;;;;;;18.00;43.10;;;;;;5094971;28;19909;-62
2022/02/21 02:19:43;;;;;;;;;;;18.00;43.10;;;;;;5095248;28;19915;-62
2022/02/21 02:22:13;;;;;;;;;;;18.00;43.10;;;;;;5094932;28;19908;-62
2022/02/21 02:24:39;;;;;;;;;;;18.00;43.10;;;;;;5094942;28;19920;-62
2022/02/21 02:27:04;;;;;;;;;;;18.00;43.10;;;;;;5094912;28;19915;-62
2022/02/21 02:29:30;;;;;;;;;;;18.00;43.20;;;;;;5094889;28;20390;-62
2022/02/21 02:31:55;;;;;;;;;;;18.00;43.10;;;;;;5094775;28;20016;-63
2022/02/21 02:34:21;;;;;;;;;;;18.00;43.10;;;;;;5094907;28;19912;-62
2022/02/21 02:36:48;;;;;;;;;;;18.00;43.10;;;;;;5094512;28;19998;-63
2022/02/21 02:39:14;;;;;;;;;;;18.00;43.10;;;;;;5093664;28;20351;-62
2022/02/21 02:41:40;;;;;;;;;;;18.00;43.10;;;;;;5094387;28;19930;-62
2022/02/21 02:44:06;;;;;;;;;;;18.00;43.10;;;;;;5094428;28;20411;-62
2022/02/21 02:46:31;;;;;;;;;;;18.00;43.00;;;;;;5094315;28;19908;-62
2022/02/21 02:48:57;;;;;;;;;;;18.00;43.10;;;;;;5094516;28;19920;-62
2022/02/21 02:51:22;;;;;;;;;;;18.00;43.20;;;;;;5094295;28;20002;-62
2022/02/21 02:53:48;;;;;;;;;;;18.00;43.10;;;;;;5094412;28;19999;-62
2022/02/21 02:56:13;;;;;;;;;;;17.90;43.10;;;;;;5076010;28;19995;-62
2022/02/21 02:58:38;;;;;;;;;;;17.90;43.20;;;;;;5094087;28;19916;-62
2022/02/21 03:01:04;;;;;;;;;;;17.90;43.20;;;;;;5093858;28;19920;-62
2022/02/21 03:03:29;;;;;;;;;;;17.90;43.10;;;;;;5094227;28;19908;-62
2022/02/21 03:05:56;;;;;;;;;;;17.90;43.10;;;;;;5094299;28;19916;-62
2022/02/21 03:08:22;;;;;;;;;;;17.90;43.10;;;;;;5094246;28;20045;-62
2022/02/21 03:10:47;;;;;;;;;;;17.90;43.10;;;;;;5093891;28;19955;-62
2022/02/21 03:13:13;;;;;;;;;;;17.80;43.10;;;;;;5094052;28;19908;-63
2022/02/21 03:15:38;;;;;;;;;;;17.90;43.10;;;;;;5093830;28;19998;-62
2022/02/21 03:18:04;;;;;;;;;;;17.90;43.10;;;;;;5093904;28;19995;-62
2022/02/21 03:20:29;;;;;;;;;;;17.80;43.00;;;;;;5093831;28;19951;-62
2022/02/21 03:22:54;;;;;;;;;;;17.80;43.00;;;;;;5093783;28;19908;-62
2022/02/21 03:25:20;;;;;;;;;;;17.80;43.10;;;;;;5093687;28;19916;-63
2022/02/21 03:27:45;;;;;;;;;;;17.80;43.10;;;;;;5093781;28;19961;-62
2022/02/21 03:30:12;;;;;;;;;;;17.80;43.00;;;;;;5093702;28;19969;-62
2022/02/21 03:32:38;;;;;;;;;;;17.80;43.00;;;;;;5093541;28;19977;-62
2022/02/21 03:35:04;;;;;;;;;;;17.80;43.10;;;;;;5093588;28;19962;-62
2022/02/21 03:37:30;;;;;;;;;;;17.80;42.90;;;;;;5093575;28;19909;-62
2022/02/21 03:39:55;;;;;;;;;;;17.80;43.00;;;;;;5093468;28;19942;-62
2022/02/21 03:42:21;;;;;;;;;;;17.80;43.00;;;;;;5093437;28;20386;-62
2022/02/21 03:44:46;;;;;;;;;;;17.80;43.00;;;;;;5093401;28;19922;-62
2022/02/21 03:47:11;;;;;;;;;;;17.80;43.00;;;;;;5093510;28;19912;-62
2022/02/21 03:49:37;;;;;;;;;;;17.80;42.90;;;;;;5093387;28;20047;-62
2022/02/21 03:52:02;;;;;;;;;;;17.80;43.00;;;;;;5093161;28;19908;-62
2022/02/21 03:54:28;;;;;;;;;;;17.70;42.90;;;;;;5093450;28;19908;-62
2022/02/21 03:56:53;;;;;;;;;;;17.80;43.00;;;;;;5093362;28;20261;-62
2022/02/21 03:59:19;;;;;;;;;;;17.70;43.00;;;;;;5093022;28;20065;-62
2022/02/21 04:01:44;;;;;;;;;;;17.80;42.80;;;;;;5075150;28;19908;-62
2022/02/21 04:04:10;;;;;;;;;;;17.70;42.90;;;;;;5092971;28;19912;-62
2022/02/21 04:06:35;;;;;;;;;;;17.80;42.90;;;;;;5093267;28;19919;-62
2022/02/21 04:09:01;;;;;;;;;;;17.70;42.80;;;;;;5092998;28;19917;-62
2022/02/21 04:11:26;;;;;;;;;;;17.80;42.90;;;;;;5093003;28;19951;-62
2022/02/21 04:13:51;;;;;;;;;;;17.70;42.90;;;;;;5074864;28;19908;-63
2022/02/21 04:16:17;;;;;;;;;;;17.70;42.90;;;;;;5092945;28;19959;-63
2022/02/21 04:18:42;;;;;;;;;;;17.70;42.80;;;;;;5092829;28;20305;-62
2022/02/21 04:21:08;;;;;;;;;;;17.70;42.90;;;;;;5092994;28;20011;-62
2022/02/21 04:23:33;;;;;;;;;;;17.70;42.80;;;;;;5092733;28;19952;-62
2022/02/21 04:25:59;;;;;;;;;;;17.70;42.80;;;;;;5092859;28;19954;-62
2022/02/21 04:28:24;;;;;;;;;;;17.70;42.80;;;;;;5074840;28;20306;-62
2022/02/21 04:30:50;;;;;;;;;;;17.70;42.80;;;;;;5074844;28;19908;-62
2022/02/21 04:33:15;;;;;;;;;;;17.70;42.80;;;;;;5092828;28;20299;-63
2022/02/21 04:35:41;;;;;;;;;;;17.70;42.80;;;;;;5093092;28;19936;-62
2022/02/21 04:38:06;;;;;;;;;;;17.70;42.80;;;;;;5092849;28;19942;-62
2022/02/21 04:40:32;;;;;;;;;;;17.70;42.80;;;;;;5092971;28;19915;-62
2022/02/21 04:42:57;;;;;;;;;;;17.70;42.80;;;;;;5092758;28;20358;-63
2022/02/21 04:45:24;;;;;;;;;;;17.70;42.70;;;;;;5092805;28;20387;-63
2022/02/21 04:47:50;;;;;;;;;;;17.70;42.80;;;;;;5092706;28;20275;-63
2022/02/21 04:50:15;;;;;;;;;;;17.70;42.80;;;;;;5092973;28;19947;-62
2022/02/21 04:52:41;;;;;;;;;;;17.70;42.80;;;;;;5092957;28;19961;-62
2022/02/21 04:55:07;;;;;;;;;;;17.70;42.70;;;;;;5092884;28;19908;-62
2022/02/21 04:57:33;;;;;;;;;;;17.70;42.70;;;;;;5092526;28;20429;-62
2022/02/21 04:59:59;;;;;;;;;;;17.70;42.70;;;;;;5092493;28;19942;-62
2022/02/21 05:02:24;;;;;;;;;;;17.70;42.70;;;;;;5094270;28;20003;-62
2022/02/21 05:04:50;;;;;;;;;;;17.70;42.70;;;;;;5096239;28;19961;-62
2022/02/21 05:07:15;;;;;;;;;;;17.70;42.70;;;;;;5078043;28;20041;-62
2022/02/21 05:09:41;;;;;;;;;;;17.70;42.60;;;;;;5096621;28;19908;-62
2022/02/21 05:12:06;;;;;;;;;;;17.70;42.60;;;;;;5096610;28;20413;-62
2022/02/21 05:14:32;;;;;;;;;;;17.70;42.60;;;;;;5078099;28;19930;-62
2022/02/21 05:16:57;;;;;;;;;;;17.70;42.60;;;;;;5078016;28;20457;-62
2022/02/21 05:19:23;;;;;;;;;;;17.70;42.60;;;;;;5096243;28;19916;-62
2022/02/21 05:21:48;;;;;;;;;;;17.70;42.60;;;;;;5096348;28;20360;-62
2022/02/21 05:24:14;;;;;;;;;;;17.70;42.60;;;;;;5096246;28;20402;-62
2022/02/21 05:26:40;;;;;;;;;;;17.70;42.50;;;;;;5096269;28;20394;-62
2022/02/21 05:29:05;;;;;;;;;;;17.80;42.50;;;;;;5096057;28;19995;-62
2022/02/21 05:31:31;;;;;;;;;;;17.80;42.50;;;;;;5095899;28;19916;-62
2022/02/21 05:33:56;;;;;;;;;;;17.80;42.50;;;;;;5095854;28;19908;-62
2022/02/21 05:36:21;;;;;;;;;;;17.80;42.50;;;;;;5095577;28;20030;-62
2022/02/21 05:38:47;;;;;;;;;;;17.80;42.50;;;;;;5095661;28;19935;-62
2022/02/21 05:41:12;;;;;;;;;;;17.80;42.50;;;;;;5095733;28;19908;-62
2022/02/21 05:43:38;;;;;;;;;;;17.80;42.40;;;;;;5095945;28;20014;-62
2022/02/21 05:46:04;;;;;;;;;;;17.80;42.40;;;;;;5095689;28;19919;-62
2022/02/21 05:48:29;;;;;;;;;;;17.80;42.40;;;;;;5095607;28;20377;-62
2022/02/21 05:50:55;;;;;;;;;;;17.80;42.40;;;;;;5095606;28;19915;-62
2022/02/21 05:53:21;;;;;;;;;;;17.80;42.40;;;;;;5095721;28;19908;-62
2022/02/21 05:55:46;;;;;;;;;;;17.90;42.40;;;;;;5095804;28;19908;-62
2022/02/21 05:58:11;;;;;;;;;;;17.90;42.40;;;;;;5095400;28;19915;-63
2022/02/21 06:00:37;;;;;;;;;;;17.90;42.40;;;;;;5095109;28;19931;-62
2022/02/21 06:03:02;;;;;;;;;;;17.90;42.30;;;;;;5095587;28;19908;-62
2022/02/21 06:05:28;;;;;;;;;;;17.90;42.30;;;;;;5095412;28;19920;-62
2022/02/21 06:07:53;;;;;;;;;;;17.90;42.30;;;;;;5095334;28;20042;-62
2022/02/21 06:10:19;;;;;;;;;;;17.90;42.30;;;;;;5094944;28;19954;-62
2022/02/21 06:12:44;;;;;;;;;;;17.90;42.30;;;;;;5076576;28;19953;-62
2022/02/21 06:15:10;;;;;;;;;;;17.90;42.20;;;;;;5076154;28;19908;-62
2022/02/21 06:17:35;;;;;;;;;;;17.90;42.30;;;;;;5095166;28;20298;-62
2022/02/21 06:20:01;;;;;;;;;;;17.90;42.20;;;;;;5095056;28;19999;-62
2022/02/21 06:22:27;;;;;;;;;;;17.90;42.20;;;;;;5094961;28;20307;-62
2022/02/21 06:24:52;;;;;;;;;;;18.00;42.20;;;;;;5076751;28;20018;-62
2022/02/21 06:27:18;;;;;;;;;;;17.90;42.20;;;;;;5095178;28;19919;-62
2022/02/21 06:29:43;;;;;;;;;;;18.00;42.20;;;;;;5095123;28;19908;-62
2022/02/21 06:32:09;;;;;;;;;;;17.90;42.20;;;;;;5094703;28;19912;-62
2022/02/21 06:34:34;;;;;;;;;;;18.00;42.10;;;;;;5094949;28;19908;-62
2022/02/21 06:37:00;;;;;;;;;;;17.90;42.10;;;;;;5094830;28;19952;-62
2022/02/21 06:39:25;;;;;;;;;;;18.00;42.10;;;;;;5094621;28;20355;-62
2022/02/21 06:41:51;;;;;;;;;;;18.00;42.20;;;;;;5094877;28;19915;-62
2022/02/21 06:44:17;;;;;;;;;;;18.00;42.10;;;;;;5094559;28;20409;-62
2022/02/21 06:46:43;;;;;;;;;;;18.00;42.10;;;;;;5094532;28;19908;-62
2022/02/21 06:49:09;;;;;;;;;;;18.00;42.10;;;;;;5094493;28;19997;-62
2022/02/21 06:51:37;;;;;;;;;;;18.00;42.10;;;;;;5094508;28;19908;-62
2022/02/21 06:54:04;;;;;;;;;;;18.00;42.10;;;;;;5094863;28;19908;-62
2022/02/21 06:56:29;;;;;;;;;;;18.00;42.10;;;;;;5094441;28;19950;-62
2022/02/21 06:58:55;;;;;;;;;;;18.00;42.00;;;;;;5075961;28;20313;-62
2022/02/21 07:01:20;;;;;;;;;;;18.00;42.00;;;;;;5094220;28;19943;-62
2022/02/21 07:03:46;;;;;;;;;;;18.00;42.00;;;;;;5094094;28;19908;-62
2022/02/21 07:06:11;;;;;;;;;;;18.00;42.00;;;;;;5094057;28;19912;-62
2022/02/21 07:08:36;;;;;;;;;;;18.00;42.00;;;;;;5094411;28;19916;-62
2022/02/21 07:11:02;;;;;;;;;;;18.00;41.90;;;;;;5093966;28;19909;-62
2022/02/21 07:13:29;;;;;;;;;;;18.00;41.90;;;;;;5082866;28;19923;-63
2022/02/21 07:15:54;;;;;;;;;;;18.00;42.00;;;;;;5073960;28;19912;-63
2022/02/21 07:18:20;;;;;;;;;;;18.00;41.90;;;;;;5090730;28;20273;-63
2022/02/21 07:20:45;;;;;;;;;;;18.00;42.00;;;;;;5084874;28;19962;-63
2022/02/21 07:23:11;;;;;;;;;;;18.00;42.00;;;;;;5073133;28;20349;-64
2022/02/21 07:25:36;;;;;;;;;;;18.00;41.90;;;;;;5072462;28;19924;-63
2022/02/21 07:28:01;;;;;;;;;;;18.00;41.90;;;;;;5072426;28;19955;-62
2022/02/21 07:30:27;;;;;;;;;;;18.00;41.80;;;;;;5091111;28;19912;-63
2022/02/21 07:32:53;;;;;;;;;;;18.00;41.80;;;;;;5091857;28;19953;-61
2022/02/21 07:35:19;;;;;;;;;;;18.00;41.90;;;;;;5081961;28;19912;-62
2022/02/21 07:37:44;;;;;;;;;;;18.10;41.80;;;;;;5078488;28;19912;-62
2022/02/21 07:40:11;;;;;;;;;;;18.10;41.80;;;;;;5089116;28;19912;-62
2022/02/21 07:42:39;;;;;;;;;;;18.10;41.70;;;;;;5082936;28;19908;-63
2022/02/21 07:45:05;;;;;;;;;;;18.10;41.80;;;;;;5091653;28;20014;-63
2022/02/21 07:47:31;;;;;;;;;;;18.20;41.70;;;;;;5092045;28;19909;-63
2022/02/21 07:49:56;;;;;;;;;;;18.20;41.70;;;;;;5090688;28;19913;-63
2022/02/21 07:52:22;;;;;;;;;;;18.10;41.70;;;;;;5076639;28;20370;-61
2022/02/21 07:54:47;;;;;;;;;;;18.20;41.70;;;;;;5078984;28;20279;-61
2022/02/21 07:57:13;;;;;;;;;;;18.20;41.60;;;;;;5080456;28;19951;-62
2022/02/21 07:59:39;;;;;;;;;;;18.40;41.50;;;;;;5091312;28;20401;-62
2022/02/21 08:02:04;;;;;;;;;;;18.30;41.50;;;;;;5092509;28;19915;-62
2022/02/21 08:04:30;;;;;;;;;;;18.30;41.60;;;;;;5091083;28;19916;-62
2022/02/21 08:06:55;;;;;;;;;;;18.30;41.60;;;;;;5086714;28;20435;-63
2022/02/21 08:09:21;;;;;;;;;;;18.30;41.70;;;;;;5092493;28;19965;-64
2022/02/21 08:11:46;;;;;;;;;;;18.30;41.70;;;;;;5088871;28;19919;-62
2022/02/21 08:14:12;;;;;;;;;;;18.30;41.70;;;;;;5090193;28;20004;-62
2022/02/21 08:16:37;;;;;;;;;;;18.30;41.70;;;;;;5092473;28;19912;-62
2022/02/21 08:19:03;;;;;;;;;;;18.30;41.70;;;;;;5091328;28;19911;-62
2022/02/21 08:21:28;;;;;;;;;;;18.30;41.70;;;;;;5090530;28;19912;-61
2022/02/21 08:23:54;;;;;;;;;;;18.30;41.70;;;;;;5091566;28;19950;-61
2022/02/21 08:26:19;;;;;;;;;;;18.30;41.70;;;;;;5078220;28;19916;-61
2022/02/21 08:28:45;;;;;;;;;;;18.30;41.70;;;;;;5071971;28;19989;-62
2022/02/21 08:31:10;;;;;;;;;;;18.40;41.70;;;;;;5079946;28;19955;-62
2022/02/21 08:33:36;;;;;;;;;;;18.40;41.70;;;;;;5077545;28;19908;-61
2022/02/21 08:36:01;;;;;;;;;;;18.40;41.60;;;;;;5091935;28;19996;-62
2022/02/21 08:38:26;;;;;;;;;;;18.40;41.70;;;;;;5095707;28;19908;-62
2022/02/21 08:40:52;;;;;;;;;;;18.40;41.60;;;;;;5086502;28;19958;-62
2022/02/21 08:43:17;;;;;;;;;;;18.40;41.50;;;;;;5074899;28;19912;-62
2022/02/21 08:45:43;;;;;;;;;;;18.40;41.50;;;;;;5086159;28;19920;-62
2022/02/21 08:48:08;;;;;;;;;;;18.40;41.60;;;;;;5075815;28;19909;-62
2022/02/21 08:50:34;;;;;;;;;;;18.40;41.60;;;;;;5089687;28;19954;-62
2022/02/21 08:52:59;;;;;;;;;;;18.40;41.60;;;;;;5095849;28;19908;-61
2022/02/21 08:55:25;;;;;;;;;;;18.40;41.60;;;;;;5094575;28;19908;-63
2022/02/21 08:57:50;;;;;;;;;;;18.40;41.60;;;;;;5077445;28;20037;-63
2022/02/21 09:00:16;;;;;;;;;;;18.40;41.60;;;;;;5095495;28;20022;-62
2022/02/21 09:02:44;;;;;;;;;;;18.50;41.60;;;;;;5094781;28;19953;-61
2022/02/21 09:05:10;;;;;;;;;;;18.50;41.50;;;;;;5094500;28;19962;-61
2022/02/21 09:07:35;;;;;;;;;;;18.50;41.60;;;;;;5083293;28;20402;-61
2022/02/21 09:10:01;;;;;;;;;;;18.50;41.40;;;;;;5080818;28;19928;-62
2022/02/21 09:12:27;;;;;;;;;;;18.50;41.50;;;;;;5095038;28;20271;-61
2022/02/21 09:14:56;;;;;;;;;;;18.50;41.50;;;;;;5094343;28;19947;-61
2022/02/21 09:17:21;;;;;;;;;;;18.50;41.40;;;;;;5078276;28;19924;-61
2022/02/21 09:19:47;;;;;;;;;;;18.50;41.40;;;;;;5082776;28;20013;-61
2022/02/21 09:22:12;;;;;;;;;;;18.50;41.40;;;;;;5067748;28;20363;-62
2022/02/21 09:24:38;;;;;;;;;;;18.50;41.40;;;;;;5076838;28;19938;-62
2022/02/21 09:27:03;;;;;;;;;;;18.50;41.40;;;;;;5094663;28;20015;-62
2022/02/21 09:29:29;;;;;;;;;;;18.50;41.50;;;;;;5076996;28;19915;-62
2022/02/21 09:31:56;;;;;;;;;;;18.60;41.20;;;;;;5095423;28;19915;-62
2022/02/21 09:34:21;;;;;;;;;;;18.60;41.00;;;;;;5094665;28;20300;-62
2022/02/21 09:36:47;;;;;;;;;;;18.60;41.10;;;;;;5094041;28;20371;-62
2022/02/21 09:39:13;;;;;;;;;;;18.60;41.30;;;;;;5094999;28;19942;-62
2022/02/21 09:41:38;;;;;;;;;;;18.60;41.30;;;;;;5094521;28;20440;-62
2022/02/21 09:44:04;;;;;;;;;;;18.60;41.20;;;;;;5094774;28;19916;-63
2022/02/21 09:46:30;;;;;;;;;;;18.60;41.20;;;;;;5075244;28;19942;-62
2022/02/21 09:48:56;;;;;;;;;;;18.60;41.20;;;;;;5082902;28;19912;-62
2022/02/21 09:51:25;;;;;;;;;;;18.60;41.20;;;;;;5074398;28;19951;-62
2022/02/21 09:53:51;;;;;;;;;;;18.60;41.20;;;;;;5074919;28;19915;-62
2022/02/21 09:56:17;;;;;;;;;;;18.60;41.20;;;;;;5083244;28;19912;-62
2022/02/21 09:58:42;;;;;;;;;;;18.70;41.20;;;;;;5094903;28;19908;-61
2022/02/21 10:01:08;;;;;;;;;;;18.70;40.90;;;;;;5094007;28;19954;-61
2022/02/21 10:03:36;;;;;;;;;;;18.70;41.00;;;;;;5094568;28;19919;-61
2022/02/21 10:06:20;;;;;;;;;;;18.70;41.00;;;;;;5087035;28;19921;-61
2022/02/21 10:09:00;;;;;;;;;;;18.70;41.10;;;;;;5075537;28;19916;-61
2022/02/21 10:11:30;;;;;;;;;;;18.60;41.10;;;;;;5075310;28;20322;-61
2022/02/21 10:13:56;;;;;;;;;;;18.60;41.10;;;;;;5074031;28;19959;-62
2022/02/21 10:16:22;;;;;;;;;;;18.60;41.00;;;;;;5081788;28;20337;-62
2022/02/21 10:18:47;;;;;;;;;;;18.60;40.90;;;;;;5094193;28;20427;-63
2022/02/21 10:21:12;;;;;;;;;;;18.60;40.60;;;;;;5094140;28;19908;-63
2022/02/21 10:23:42;;;;;;;;;;;18.60;40.90;;;;;;5094328;28;19919;-60
2022/02/21 10:26:07;;;;;;;;;;;18.50;40.20;;;;;;5093553;28;20015;-61
2022/02/21 10:28:44;;;;;;;;;;;18.40;41.10;;;;;;5091428;28;20025;-61
2022/02/21 10:31:16;;;;;;;;;;;18.50;41.30;;;;;;5077596;28;19966;-60
2022/02/21 10:33:48;;;;;;;;;;;18.50;41.20;;;;;;5074005;28;19947;-59
2022/02/21 10:36:34;;;;;;;;;;;18.60;41.20;;;;;;5074502;28;19951;-61
2022/02/21 10:39:00;;;;;;;;;;;18.60;41.10;;;;;;5073500;28;20272;-61
2022/02/21 10:41:38;;;;;;;;;;;18.50;41.50;;;;;;5087160;28;19912;-61
2022/02/21 10:44:16;;;;;;;;;;;18.50;41.40;;;;;;5085614;28;19916;-62
2022/02/21 10:46:45;;;;;;;;;;;18.50;41.40;;;;;;5078125;28;19956;-61
2022/02/21 10:49:11;;;;;;;;;;;18.50;41.40;;;;;;5073155;28;19917;-61
2022/02/21 10:51:37;;;;;;;;;;;18.60;41.40;;;;;;5088019;28;19912;-62
2022/02/21 10:54:09;;;;;;;;;;;18.50;41.30;;;;;;5088047;28;20367;-61
2022/02/21 10:56:42;;;;;;;;;;;18.50;41.40;;;;;;5074420;28;19912;-61
2022/02/21 10:59:07;;;;;;;;;;;18.50;41.50;;;;;;5082677;28;20406;-61
2022/02/21 11:01:33;;;;;;;;;;;18.50;41.40;;;;;;5083455;28;19908;-61
2022/02/21 11:04:00;;;;;;;;;;;18.50;41.50;;;;;;5092079;28;19928;-61
2022/02/21 11:06:26;;;;;;;;;;;18.50;41.40;;;;;;5092732;28;20045;-62
2022/02/21 11:08:53;;;;;;;;;;;18.50;41.50;;;;;;5090304;28;19957;-61
2022/02/21 11:11:21;;;;;;;;;;;18.50;41.40;;;;;;5092123;28;19920;-61
2022/02/21 11:13:48;;;;;;;;;;;18.50;41.40;;;;;;5091289;28;19951;-61
2022/02/21 11:16:14;;;;;;;;;;;18.50;41.40;;;;;;5093217;28;19931;-61
2022/02/21 11:18:39;;;;;;;;;;;18.50;41.40;;;;;;5090648;28;19951;-61
2022/02/21 11:21:05;;;;;;;;;;;18.50;41.40;;;;;;5090928;28;19977;-60
2022/02/21 11:23:31;;;;;;;;;;;18.50;41.40;;;;;;5091829;28;19961;-61
2022/02/21 11:26:17;;;;;;;;;;;18.50;41.40;;;;;;5092274;28;19974;-61
2022/02/21 11:28:44;;;;;;;;;;;18.50;41.40;;;;;;5091166;28;19908;-61
2022/02/21 11:31:11;;;;;;;;;;;18.60;41.40;;;;;;5092326;28;19958;-61
2022/02/21 11:33:55;;;;;;;;;;;18.60;41.40;;;;;;5091741;28;19908;-60
2022/02/21 11:36:21;;;;;;;;;;;18.50;41.40;;;;;;5091559;28;19931;-60
2022/02/21 11:38:46;;;;;;;;;;;18.60;41.40;;;;;;5092027;28;19915;-61
2022/02/21 11:41:13;;;;;;;;;;;18.60;41.40;;;;;;5091475;28;19908;-61
2022/02/21 11:43:40;;;;;;;;;;;18.50;41.40;;;;;;5090321;28;19991;-61
2022/02/21 11:46:19;;;;;;;;;;;18.50;41.40;;;;;;5089331;28;19920;-61
2022/02/21 11:48:54;;;;;;;;;;;18.60;41.40;;;;;;5089583;28;19908;-61
2022/02/21 11:51:39;;;;;;;;;;;18.60;41.40;;;;;;5091816;28;19936;-60
2022/02/21 11:54:13;;;;;;;;;;;18.60;41.40;;;;;;5076179;28;19908;-61
2022/02/21 11:56:57;;;;;;;;;;;18.60;41.40;;;;;;5077659;28;20351;-62
2022/02/21 11:59:23;;;;;;;;;;;18.60;41.40;;;;;;5070984;28;20015;-61
2022/02/21 12:01:48;;;;;;;;;;;18.60;41.40;;;;;;5079552;28;19999;-61
2022/02/21 12:04:15;;;;;;;;;;;18.60;41.40;;;;;;5088343;28;20012;-60
2022/02/21 12:06:49;;;;;;;;;;;18.60;41.40;;;;;;5091676;28;19916;-60
2022/02/21 12:09:14;;;;;;;;;;;18.60;41.40;;;;;;5063954;28;19912;-60
2022/02/21 12:11:40;;;;;;;;;;;18.60;41.40;;;;;;5074652;28;20378;-60
2022/02/21 12:14:11;;;;;;;;;;;18.70;41.30;;;;;;5089107;28;20548;-60
2022/02/21 12:16:55;;;;;;;;;;;18.60;41.30;;;;;;5080666;28;20359;-60
2022/02/21 12:19:31;;;;;;;;;;;18.60;41.40;;;;;;5084555;28;20523;-60
2022/02/21 12:22:08;;;;;;;;;;;18.60;41.40;;;;;;5076323;28;20011;-61
2022/02/21 12:24:33;;;;;;;;;;;18.60;41.40;;;;;;5077379;28;20038;-61
2022/02/21 12:27:13;;;;;;;;;;;18.60;41.30;;;;;;5075863;28;20413;-60
2022/02/21 12:29:39;;;;;;;;;;;18.60;41.50;;;;;;5085215;28;19916;-62
2022/02/21 12:32:04;;;;;;;;;;;18.60;41.40;;;;;;5081295;28;19924;-61
2022/02/21 12:34:31;;;;;;;;;;;18.60;41.40;;;;;;5092949;28;19915;-61
2022/02/21 12:37:14;;;;;;;;;;;18.60;41.30;;;;;;5095646;28;20003;-60
2022/02/21 12:39:41;;;;;;;;;;;18.60;41.40;;;;;;5084975;28;19947;-61
2022/02/21 12:42:06;;;;;;;;;;;18.60;41.40;;;;;;5075987;28;19916;-62
2022/02/21 12:44:32;;;;;;;;;;;18.60;41.60;;;;;;5075898;28;19916;-62
2022/02/21 12:47:01;;;;;;;;;;;18.60;41.40;;;;;;5079211;28;19917;-62
2022/02/21 12:49:29;;;;;;;;;;;18.60;41.50;;;;;;5081126;28;19912;-62
2022/02/21 12:52:08;;;;;;;;;;;18.60;41.50;;;;;;5095819;28;19908;-60
2022/02/21 12:54:34;;;;;;;;;;;18.60;41.50;;;;;;5090287;28;19926;-61
2022/02/21 12:57:00;;;;;;;;;;;18.60;41.60;;;;;;5084698;28;19912;-61
2022/02/21 12:59:27;;;;;;;;;;;18.60;41.60;;;;;;5095375;28;19957;-61
2022/02/21 13:01:53;;;;;;;;;;;18.70;41.50;;;;;;5084005;28;20315;-62
2022/02/21 13:04:19;;;;;;;;;;;18.70;41.30;;;;;;5094183;28;19963;-61
2022/02/21 13:06:45;;;;;;;;;;;18.70;41.40;;;;;;5077348;28;19912;-60
2022/02/21 13:09:11;;;;;;;;;;;18.70;41.40;;;;;;5095094;28;19919;-61
2022/02/21 13:11:38;;;;;;;;;;;18.70;41.40;;;;;;5079337;28;19912;-61
2022/02/21 13:14:04;;;;;;;;;;;18.70;41.40;;;;;;5076185;28;20377;-63
2022/02/21 13:16:30;;;;;;;;;;;18.80;41.30;;;;;;5073177;28;19909;-60
2022/02/21 13:18:56;;;;;;;;;;;18.80;41.30;;;;;;5076354;28;19927;-61
2022/02/21 13:21:31;;;;;;;;;;;18.80;41.30;;;;;;5073792;28;19912;-61
2022/02/21 13:23:56;;;;;;;;;;;18.80;41.20;;;;;;5075388;28;19913;-61
2022/02/21 13:26:22;;;;;;;;;;;18.90;41.20;;;;;;5074985;28;19912;-61
2022/02/21 13:28:48;;;;;;;;;;;18.90;41.20;;;;;;5076225;28;19939;-59
2022/02/21 13:31:14;;;;;;;;;;;18.80;41.20;;;;;;5074801;28;19909;-62
2022/02/21 13:33:40;;;;;;;;;;;18.90;41.20;;;;;;5075658;28;19916;-62
2022/02/21 13:36:06;;;;;;;;;;;18.90;41.20;;;;;;5076067;28;19909;-61
2022/02/21 13:38:32;;;;;;;;;;;18.90;41.20;;;;;;5075829;28;19924;-62
2022/02/21 13:40:58;;;;;;;;;;;18.90;41.20;;;;;;5074771;28;20018;-61
2022/02/21 13:43:24;;;;;;;;;;;19.00;41.20;;;;;;5087375;28;19916;-61
2022/02/21 13:45:52;;;;;;;;;;;18.90;41.20;;;;;;5093334;28;19985;-61
2022/02/21 13:48:23;;;;;;;;;;;19.00;41.20;;;;;;5071847;28;19994;-61
2022/02/21 13:50:53;;;;;;;;;;;19.00;41.20;;;;;;5074958;28;19917;-61
2022/02/21 13:53:31;;;;;;;;;;;18.90;41.20;;;;;;5074450;28;19908;-62
2022/02/21 13:55:57;;;;;;;;;;;19.00;41.20;;;;;;5083484;28;20310;-63
2022/02/21 13:58:26;;;;;;;;;;;19.00;41.20;;;;;;5088213;28;19912;-62
2022/02/21 14:00:52;;;;;;;;;;;19.00;41.20;;;;;;5074200;28;20285;-62
2022/02/21 14:03:18;;;;;;;;;;;19.00;41.20;;;;;;5074655;28;19974;-61
2022/02/21 14:05:52;;;;;;;;;;;19.00;41.20;;;;;;5075421;28;19954;-61
2022/02/21 14:08:19;;;;;;;;;;;19.00;41.20;;;;;;5093921;28;19908;-60
2022/02/21 14:10:55;;;;;;;;;;;19.00;41.20;;;;;;5094565;28;20004;-60
2022/02/21 14:13:20;;;;;;;;;;;19.00;41.20;;;;;;5094739;28;19946;-60